Time;durP1;ratioP1;P1;durP2;ratioP2;P2;SDS_P1;SDS_P2;PMS_P1;PMS_P2;Temp;Humidity;BMP_temperature;BMP_pressure;BME280_temperature;BME280_humidity;BME280_pressure;Samples;Min_cycle;Max_cycle;Signal;HPM_P1;HPM_P2
2022/03/26 00:00:37;;;;;;;40.40;25.93;;;8.00;99.90;;;;;;5034086;28;20627;-76
2022/03/26 00:03:04;;;;;;;38.00;24.57;;;7.90;99.90;;;;;;5039300;28;20198;-76
2022/03/26 00:05:33;;;;;;;42.30;25.63;;;7.90;99.90;;;;;;5058917;28;20223;-76
2022/03/26 00:08:00;;;;;;;44.07;25.73;;;7.90;99.90;;;;;;5047605;28;20295;-76
2022/03/26 00:10:27;;;;;;;41.83;25.97;;;7.80;99.90;;;;;;5037777;28;20199;-76
2022/03/26 00:12:57;;;;;;;45.07;24.90;;;7.90;99.90;;;;;;5041321;28;20227;-76
2022/03/26 00:15:24;;;;;;;41.90;24.47;;;7.80;99.90;;;;;;5039186;28;20310;-76
2022/03/26 00:17:52;;;;;;;44.23;25.63;;;7.80;99.90;;;;;;5038341;28;20199;-76
2022/03/26 00:20:19;;;;;;;41.07;24.20;;;7.70;99.90;;;;;;5049935;28;20676;-75
2022/03/26 00:22:47;;;;;;;41.40;24.57;;;7.50;99.90;;;;;;5037166;28;20205;-76
2022/03/26 00:25:17;;;;;;;45.00;24.77;;;7.60;99.90;;;;;;5043648;28;20553;-76
2022/03/26 00:27:44;;;;;;;41.40;24.00;;;7.60;99.90;;;;;;5051865;28;20290;-76
2022/03/26 00:30:12;;;;;;;39.97;23.93;;;7.50;99.90;;;;;;5060679;28;20203;-76
2022/03/26 00:32:38;;;;;;;38.53;23.43;;;7.60;99.90;;;;;;5048505;28;20305;-76
2022/03/26 00:35:09;;;;;;;41.40;23.87;;;7.50;99.90;;;;;;5039791;28;20279;-76
2022/03/26 00:37:36;;;;;;;40.00;23.50;;;7.50;99.90;;;;;;5051574;28;20195;-76
2022/03/26 00:40:06;;;;;;;37.80;23.27;;;7.60;99.90;;;;;;5055938;28;20241;-76
2022/03/26 00:42:33;;;;;;;41.93;23.47;;;7.60;99.90;;;;;;5043097;28;20229;-76
2022/03/26 00:45:00;;;;;;;38.93;22.70;;;7.60;99.90;;;;;;5042171;28;20217;-76
2022/03/26 00:47:27;;;;;;;39.20;22.73;;;7.80;99.90;;;;;;5049830;28;20883;-76
2022/03/26 00:49:55;;;;;;;34.50;21.50;;;7.80;99.90;;;;;;5067003;28;20206;-76
2022/03/26 00:52:22;;;;;;;42.77;23.43;;;7.90;99.90;;;;;;5056862;28;20206;-76
2022/03/26 00:54:49;;;;;;;38.10;21.37;;;8.10;99.90;;;;;;5050187;28;20631;-76
2022/03/26 00:57:17;;;;;;;36.57;22.20;;;8.10;99.90;;;;;;5033146;28;20282;-76
2022/03/26 00:59:44;;;;;;;37.53;22.67;;;7.90;99.90;;;;;;5046899;28;20305;-76
2022/03/26 01:02:11;;;;;;;38.87;22.33;;;7.90;99.90;;;;;;5043626;28;20238;-76
2022/03/26 01:04:39;;;;;;;36.83;21.97;;;7.80;99.90;;;;;;5039642;28;20244;-76
2022/03/26 01:07:06;;;;;;;39.97;22.30;;;7.70;99.90;;;;;;5050948;28;20195;-76
2022/03/26 01:09:33;;;;;;;38.50;22.03;;;7.60;99.90;;;;;;5038873;28;20290;-76
2022/03/26 01:12:00;;;;;;;38.83;22.20;;;7.60;99.90;;;;;;5049163;28;20621;-76
2022/03/26 01:14:28;;;;;;;39.47;21.87;;;7.50;99.90;;;;;;5035834;28;20312;-77
2022/03/26 01:16:55;;;;;;;39.57;22.63;;;7.50;99.90;;;;;;5053772;28;20952;-76
2022/03/26 01:19:22;;;;;;;38.67;21.17;;;7.40;99.90;;;;;;5070802;28;20242;-76
2022/03/26 01:21:49;;;;;;;35.80;22.20;;;7.30;99.90;;;;;;5061422;28;20202;-76
2022/03/26 01:24:16;;;;;;;35.60;21.13;;;7.00;99.90;;;;;;5045189;28;20207;-76
2022/03/26 01:26:43;;;;;;;42.93;22.50;;;7.00;99.90;;;;;;5053907;28;20230;-77
2022/03/26 01:29:10;;;;;;;37.47;21.80;;;6.80;99.90;;;;;;5056341;28;20372;-76
2022/03/26 01:31:39;;;;;;;38.03;21.30;;;6.90;99.90;;;;;;5035004;28;20199;-76
2022/03/26 01:34:06;;;;;;;37.90;21.87;;;7.00;99.90;;;;;;5056919;28;20282;-76
2022/03/26 01:36:33;;;;;;;39.50;21.00;;;6.90;99.90;;;;;;5054421;28;20258;-76
2022/03/26 01:39:00;;;;;;;35.47;20.73;;;6.80;99.90;;;;;;5053196;28;20282;-77
2022/03/26 01:41:27;;;;;;;34.23;20.93;;;6.70;99.90;;;;;;5063595;28;20231;-77
2022/03/26 01:43:54;;;;;;;33.03;20.17;;;6.70;99.90;;;;;;5043814;28;20234;-76
2022/03/26 01:46:21;;;;;;;37.17;22.20;;;6.70;99.90;;;;;;5038336;28;20247;-76
2022/03/26 01:48:50;;;;;;;40.27;20.27;;;6.60;99.90;;;;;;5061911;28;20197;-77
2022/03/26 01:51:18;;;;;;;37.00;20.20;;;6.80;99.90;;;;;;5052529;28;20292;-76
2022/03/26 01:53:47;;;;;;;38.67;20.93;;;6.90;99.90;;;;;;5048068;28;20285;-76
2022/03/26 01:56:15;;;;;;;34.07;20.90;;;7.00;99.90;;;;;;5033561;28;20334;-76
2022/03/26 01:58:42;;;;;;;37.27;20.47;;;6.90;99.90;;;;;;5048718;28;20733;-76
2022/03/26 02:01:09;;;;;;;35.70;20.13;;;6.90;99.90;;;;;;5038835;28;20636;-76
2022/03/26 02:03:36;;;;;;;33.57;20.03;;;6.80;99.90;;;;;;5041108;28;20234;-77
2022/03/26 02:06:05;;;;;;;36.07;20.53;;;6.80;99.90;;;;;;5055958;28;20202;-77
2022/03/26 02:08:32;;;;;;;32.73;19.50;;;6.90;99.90;;;;;;5052300;28;20204;-76
2022/03/26 02:10:59;;;;;;;33.13;20.33;;;6.90;99.90;;;;;;5054804;28;20206;-76
2022/03/26 02:13:26;;;;;;;35.60;20.13;;;7.00;99.90;;;;;;5070598;28;20292;-76
2022/03/26 02:15:52;;;;;;;35.60;20.13;;;7.10;99.90;;;;;;5061832;28;20683;-76
2022/03/26 02:18:19;;;;;;;34.47;20.90;;;7.00;99.90;;;;;;5058118;28;20240;-76
2022/03/26 02:20:48;;;;;;;32.23;18.87;;;6.80;99.90;;;;;;5064479;28;20287;-77
2022/03/26 02:23:15;;;;;;;37.07;19.83;;;6.70;99.90;;;;;;5041901;28;20194;-76
2022/03/26 02:25:42;;;;;;;30.43;19.20;;;6.50;99.90;;;;;;5042017;28;20203;-76
2022/03/26 02:28:10;;;;;;;34.73;20.10;;;6.60;99.90;;;;;;5069660;28;20235;-76
2022/03/26 02:30:37;;;;;;;35.50;19.93;;;6.50;99.90;;;;;;5056301;28;20202;-76
2022/03/26 02:33:04;;;;;;;39.10;19.67;;;6.30;99.90;;;;;;5043154;28;20298;-76
2022/03/26 02:35:31;;;;;;;35.10;19.13;;;6.40;99.90;;;;;;5045802;28;20206;-77
2022/03/26 02:38:00;;;;;;;37.80;18.73;;;6.30;99.90;;;;;;5057666;28;20281;-76
2022/03/26 02:40:26;;;;;;;33.87;18.43;;;6.50;99.90;;;;;;5044318;28;20236;-77
2022/03/26 02:42:54;;;;;;;33.23;18.73;;;6.20;99.90;;;;;;5043011;28;20238;-76
2022/03/26 02:45:21;;;;;;;32.40;18.83;;;6.20;99.90;;;;;;5050851;28;20210;-77
2022/03/26 02:47:50;;;;;;;33.80;18.80;;;6.10;99.90;;;;;;5046296;28;20242;-76
2022/03/26 02:50:18;;;;;;;32.43;18.37;;;6.10;99.90;;;;;;5042646;28;20201;-77
2022/03/26 02:52:48;;;;;;;33.17;18.70;;;6.20;99.90;;;;;;5062457;28;20249;-76
2022/03/26 02:55:16;;;;;;;33.47;18.23;;;6.30;99.90;;;;;;5052599;28;20213;-76
2022/03/26 02:57:46;;;;;;;30.87;18.07;;;6.30;99.90;;;;;;5066310;28;20232;-76
2022/03/26 03:00:14;;;;;;;32.23;18.07;;;6.20;99.90;;;;;;5063836;28;20229;-76
2022/03/26 03:02:41;;;;;;;31.87;17.93;;;6.20;99.90;;;;;;5068970;28;20201;-76
2022/03/26 03:05:09;;;;;;;34.00;17.90;;;6.10;99.90;;;;;;5033324;28;20240;-76
2022/03/26 03:07:36;;;;;;;36.03;18.07;;;6.00;99.90;;;;;;5036348;28;20638;-76
2022/03/26 03:10:04;;;;;;;30.13;17.37;;;6.30;99.90;;;;;;5032807;28;20244;-77
2022/03/26 03:12:33;;;;;;;30.53;17.23;;;6.10;99.90;;;;;;5034494;28;20286;-76
2022/03/26 03:15:00;;;;;;;29.53;17.43;;;6.20;99.90;;;;;;5034462;28;20203;-76
2022/03/26 03:17:27;;;;;;;30.50;17.80;;;6.10;99.90;;;;;;5074095;28;20250;-77
2022/03/26 03:19:54;;;;;;;34.97;18.77;;;6.30;99.90;;;;;;5036342;28;20228;-76
2022/03/26 03:22:21;;;;;;;33.63;18.23;;;6.40;99.90;;;;;;5032995;28;20204;-76
2022/03/26 03:24:48;;;;;;;26.77;16.30;;;6.50;99.90;;;;;;5045046;28;20308;-76
2022/03/26 03:27:15;;;;;;;30.83;18.07;;;6.20;99.90;;;;;;5041374;28;20776;-76
2022/03/26 03:29:43;;;;;;;34.63;18.17;;;6.00;99.90;;;;;;5040364;28;20247;-76
2022/03/26 03:32:10;;;;;;;35.10;18.60;;;6.30;99.90;;;;;;5032697;28;20237;-77
2022/03/26 03:34:37;;;;;;;35.87;18.63;;;6.30;99.90;;;;;;5042247;28;20289;-76
2022/03/26 03:37:04;;;;;;;31.70;18.70;;;;;;;;;;5032483;28;20230;-76
2022/03/26 03:39:31;;;;;;;36.37;19.53;;;;;;;;;;5055478;28;20656;-76
2022/03/26 03:41:58;;;;;;;33.70;18.67;;;;;;;;;;5058797;28;20238;-76
2022/03/26 03:44:26;;;;;;;31.00;17.53;;;;;;;;;;5051247;28;20230;-76
2022/03/26 03:46:54;;;;;;;35.70;18.67;;;;;;;;;;5042567;28;20239;-76
2022/03/26 03:49:21;;;;;;;33.10;18.30;;;;;;;;;;5042927;28;20674;-76
2022/03/26 03:51:49;;;;;;;32.47;18.30;;;;;;;;;;5052016;28;20257;-76
2022/03/26 03:54:16;;;;;;;33.53;18.77;;;;;;;;;;5038612;28;20218;-76
2022/03/26 03:56:43;;;;;;;37.43;18.27;;;;;;;;;;5032402;28;20236;-76
2022/03/26 03:59:12;;;;;;;32.67;18.17;;;;;;;;;;5032319;28;20265;-76
2022/03/26 04:01:39;;;;;;;30.77;19.23;;;;;;;;;;5064837;28;20601;-76
2022/03/26 04:04:08;;;;;;;32.13;19.53;;;;;;;;;;5071519;28;20229;-76
2022/03/26 04:06:35;;;;;;;30.43;19.57;;;;;;;;;;5071573;28;20292;-76
2022/03/26 04:09:02;;;;;;;33.83;19.40;;;;;;;;;;5071838;28;20218;-76
2022/03/26 04:11:29;;;;;;;33.27;19.13;;;;;;;;;;5056108;28;20291;-76
2022/03/26 04:13:56;;;;;;;36.97;19.77;;;;;;;;;;5031726;28;20233;-76
2022/03/26 04:16:24;;;;;;;35.40;19.50;;;;;;;;;;5054616;28;20208;-76
2022/03/26 04:18:51;;;;;;;36.03;18.90;;;;;;;;;;5067808;28;20684;-76
2022/03/26 04:21:20;;;;;;;33.43;19.73;;;;;;;;;;5071349;28;20285;-76
2022/03/26 04:23:47;;;;;;;31.33;19.60;;;;;;;;;;5042403;28;20229;-76
2022/03/26 04:26:15;;;;;;;33.10;19.80;;;;;;;;;;5062342;28;20288;-76
2022/03/26 04:28:42;;;;;;;30.37;18.43;;;;;;;;;;5038644;28;20237;-76
2022/03/26 04:31:09;;;;;;;32.17;18.17;;;;;;;;;;5035809;28;20229;-76
2022/03/26 04:33:36;;;;;;;31.40;18.60;;;;;;;;;;5032817;28;20295;-76
2022/03/26 04:36:03;;;;;;;32.53;18.43;;;;;;;;;;5037257;28;20297;-76
2022/03/26 04:38:32;;;;;;;35.73;19.10;;;;;;;;;;5038064;28;20234;-76
2022/03/26 04:41:00;;;;;;;32.33;18.13;;;;;;;;;;5050404;28;20243;-76
2022/03/26 04:43:27;;;;;;;31.30;19.20;;;;;;;;;;5051865;28;20284;-76
2022/03/26 04:45:54;;;;;;;37.07;19.33;;;;;;;;;;5051084;28;20274;-76
2022/03/26 04:48:21;;;;;;;34.63;18.27;;;;;;;;;;5045925;28;20320;-76
2022/03/26 04:50:48;;;;;;;32.10;19.10;;;;;;;;;;5033485;28;20214;-76
2022/03/26 04:53:15;;;;;;;36.47;18.27;;;;;;;;;;5053238;28;20232;-76
2022/03/26 04:55:44;;;;;;;31.90;19.47;;;;;;;;;;5055903;28;20231;-76
2022/03/26 04:58:11;;;;;;;33.97;19.00;;;;;;;;;;5054979;28;20326;-77
2022/03/26 05:00:40;;;;;;;34.97;19.43;;;;;;;;;;5074042;28;20204;-76
2022/03/26 05:03:08;;;;;;;33.23;18.67;;;;;;;;;;5055110;28;20742;-76
2022/03/26 05:05:35;;;;;;;30.07;18.47;;;;;;;;;;5035271;28;20700;-76
2022/03/26 05:08:02;;;;;;;35.10;19.80;;;;;;;;;;5047250;28;20371;-76
2022/03/26 05:10:30;;;;;;;35.53;20.30;;;;;;;;;;5035198;28;20290;-76
2022/03/26 05:12:59;;;;;;;35.13;19.17;;;;;;;;;;5038087;28;20275;-76
2022/03/26 05:15:28;;;;;;;33.57;19.20;;;;;;;;;;5052139;28;20740;-77
2022/03/26 05:17:56;;;;;;;32.70;19.20;;;;;;;;;;5075053;28;20211;-76
2022/03/26 05:20:23;;;;;;;31.70;17.87;;;;;;;;;;5062553;28;20203;-77
2022/03/26 05:22:51;;;;;;;31.23;18.63;;;;;;;;;;5049668;28;20305;-75
2022/03/26 05:25:18;;;;;;;32.37;19.23;;;;;;;;;;5043519;28;20314;-76
2022/03/26 05:27:46;;;;;;;36.20;18.20;;;;;;;;;;5054886;28;20786;-76
2022/03/26 05:30:15;;;;;;;34.67;18.60;;;;;;;;;;5064017;28;20315;-76
2022/03/26 05:32:42;;;;;;;34.73;19.37;;;;;;;;;;5070565;28;20689;-76
2022/03/26 05:35:13;;;;;;;34.13;18.50;;;;;;;;;;5063992;28;20672;-75
2022/03/26 05:37:40;;;;;;;31.73;19.37;;;;;;;;;;5074376;28;20541;-76
2022/03/26 05:40:08;;;;;;;37.13;19.50;;;;;;;;;;5043253;28;20270;-76
2022/03/26 05:42:36;;;;;;;31.57;19.03;;;;;;;;;;5044461;28;20202;-76
2022/03/26 05:45:03;;;;;;;31.00;18.43;;;;;;;;;;5034970;28;20201;-76
2022/03/26 05:47:32;;;;;;;30.67;18.20;;;;;;;;;;5034552;28;20227;-76
2022/03/26 05:49:59;;;;;;;37.37;19.43;;;;;;;;;;5036064;28;20279;-76
2022/03/26 05:52:26;;;;;;;36.33;19.97;;;;;;;;;;5043102;28;20241;-76
2022/03/26 05:54:53;;;;;;;34.67;19.00;;;;;;;;;;5066329;28;20230;-76
2022/03/26 05:57:21;;;;;;;33.00;18.87;;;;;;;;;;5058543;28;20229;-76
2022/03/26 05:59:48;;;;;;;29.97;18.40;;;;;;;;;;5074093;28;20264;-76
2022/03/26 06:02:15;;;;;;;32.00;18.30;;;;;;;;;;5055039;28;20208;-76
2022/03/26 06:04:44;;;;;;;31.37;19.33;;;;;;;;;;5052513;28;20204;-76
2022/03/26 06:07:11;;;;;;;32.60;18.83;;;;;;;;;;5047256;28;20210;-76
2022/03/26 06:09:38;;;;;;;34.63;19.20;;;;;;;;;;5047259;28;20293;-76
2022/03/26 06:12:06;;;;;;;32.17;17.77;;;;;;;;;;5041510;28;20235;-76
2022/03/26 06:14:34;;;;;;;32.57;18.87;;;;;;;;;;5045145;28;20264;-76
2022/03/26 06:17:01;;;;;;;33.60;19.13;;;;;;;;;;5058391;28;20303;-77
2022/03/26 06:19:30;;;;;;;34.67;18.97;;;;;;;;;;5043932;28;20207;-77
2022/03/26 06:21:58;;;;;;;31.33;18.67;;;;;;;;;;5043780;28;20227;-76
2022/03/26 06:24:26;;;;;;;32.20;18.47;;;;;;;;;;5057113;28;20288;-76
2022/03/26 06:26:53;;;;;;;33.87;18.60;;;;;;;;;;5039606;28;20214;-76
2022/03/26 06:29:20;;;;;;;33.77;18.40;;;;;;;;;;5047369;28;20576;-76
2022/03/26 06:31:48;;;;;;;33.53;18.60;;;;;;;;;;5039760;28;20200;-76
2022/03/26 06:34:16;;;;;;;36.47;19.00;;;;;;;;;;5033771;28;20237;-76
2022/03/26 06:36:43;;;;;;;29.30;18.10;;;;;;;;;;5050241;28;20218;-76
2022/03/26 06:39:12;;;;;;;33.17;18.37;;;;;;;;;;5044018;28;20655;-76
2022/03/26 06:41:39;;;;;;;31.73;18.63;;;;;;;;;;5048657;28;20202;-76
2022/03/26 06:44:08;;;;;;;31.87;18.53;;;;;;;;;;5053934;28;20206;-77
2022/03/26 06:46:36;;;;;;;30.63;18.33;;;;;;;;;;5052625;28;20199;-76
2022/03/26 06:49:04;;;;;;;33.53;18.73;;;;;;;;;;5050515;28;20231;-77
2022/03/26 06:51:31;;;;;;;32.90;18.00;;;;;;;;;;5044182;28;20231;-76
2022/03/26 06:53:59;;;;;;;30.93;18.67;;;;;;;;;;5043124;28;20203;-76
2022/03/26 06:56:27;;;;;;;34.17;19.90;;;;;;;;;;5062871;28;20199;-76
2022/03/26 06:58:55;;;;;;;29.70;18.83;;;;;;;;;;5053177;28;20220;-76
2022/03/26 07:01:22;;;;;;;30.97;19.10;;;;;;;;;;5048582;28;20234;-76
2022/03/26 07:03:49;;;;;;;29.40;18.17;;;;;;;;;;5064363;28;20657;-77
2022/03/26 07:06:19;;;;;;;31.27;18.90;;;;;;;;;;5063958;28;20235;-76
2022/03/26 07:08:46;;;;;;;32.30;20.37;;;;;;;;;;5063671;28;20309;-79
2022/03/26 07:11:15;;;;;;;33.37;19.07;;;;;;;;;;5047383;28;20237;-78
2022/03/26 07:13:44;;;;;;;32.50;19.27;;;;;;;;;;5033285;28;20263;-80
2022/03/26 07:16:11;;;;;;;30.73;19.60;;;;;;;;;;5035027;28;20576;-77
2022/03/26 07:18:39;;;;;;;30.30;19.27;;;;;;;;;;5045377;28;20239;-77
2022/03/26 07:21:08;;;;;;;30.27;20.20;;;;;;;;;;5041502;28;20231;-77
2022/03/26 07:23:35;;;;;;;31.43;20.63;;;;;;;;;;5053521;28;20210;-77
2022/03/26 07:26:03;;;;;;;32.23;20.73;;;;;;;;;;5032812;28;20208;-77
2022/03/26 07:28:30;;;;;;;29.17;20.63;;;;;;;;;;5060718;28;20214;-77
2022/03/26 07:30:59;;;;;;;29.73;20.37;;;;;;;;;;5050924;28;20199;-77
2022/03/26 07:33:27;;;;;;;29.33;21.03;;;;;;;;;;5043389;28;20331;-77
2022/03/26 07:35:54;;;;;;;29.70;20.67;;;;;;;;;;5061822;28;20203;-77
2022/03/26 07:38:21;;;;;;;32.23;21.23;;;;;;;;;;5035254;28;20280;-78
2022/03/26 07:40:49;;;;;;;30.97;20.73;;;;;;;;;;5042608;28;20250;-77
2022/03/26 07:43:16;;;;;;;29.33;21.40;;;;;;;;;;5047559;28;20739;-76
2022/03/26 07:45:43;;;;;;;30.13;20.63;;;;;;;;;;5047243;28;20701;-76
2022/03/26 07:48:12;;;;;;;32.87;21.77;;;;;;;;;;5050835;28;20215;-75
2022/03/26 07:50:39;;;;;;;30.13;21.00;;;;;;;;;;5051476;28;20671;-77
2022/03/26 07:53:06;;;;;;;32.47;22.20;;;;;;;;;;5046815;28;20288;-76
2022/03/26 07:55:34;;;;;;;29.97;21.43;;;;;;;;;;5044448;28;20282;-76
2022/03/26 07:58:01;;;;;;;30.23;21.52;;;;;;;;;;5045212;28;20187;-76
2022/03/26 08:00:28;;;;;;;35.80;23.40;;;;;;;;;;5045124;28;20276;-76
2022/03/26 08:02:55;;;;;;;33.05;23.15;;;;;;;;;;5045738;28;20231;-76
2022/03/26 08:05:24;;;;;;;33.95;21.70;;;;;;;;;;5045418;28;20206;-76
2022/03/26 08:07:51;;;;;;;27.30;21.42;;;;;;;;;;5049432;28;20273;-76
2022/03/26 08:10:18;;;;;;;32.10;23.17;;;;;;;;;;5049490;28;20254;-77
2022/03/26 08:12:45;;;;;;;30.33;22.20;;;;;;;;;;5036936;28;20270;-77
2022/03/26 08:15:13;;;;;;;30.55;23.40;;;;;;;;;;5058063;28;20231;-77
2022/03/26 08:17:40;;;;;;;32.50;22.98;;;;;;;;;;5047350;28;20196;-76
2022/03/26 08:20:08;;;;;;;34.85;23.52;;;;;;;;;;5046929;28;20253;-77
2022/03/26 08:22:36;;;;;;;32.85;22.80;;;;;;;;;;5034673;28;20224;-77
2022/03/26 08:25:04;;;;;;;32.28;23.83;;;;;;;;;;5037770;28;20644;-77
2022/03/26 08:27:31;;;;;;;32.33;24.08;;;;;;;;;;5053274;28;20675;-79
2022/03/26 08:29:58;;;;;;;27.70;22.38;;;;;;;;;;5058274;28;20265;-79
2022/03/26 08:32:26;;;;;;;32.92;24.33;;;;;;;;;;5045098;28;20261;-77
2022/03/26 08:34:53;;;;;;;31.70;23.48;;;;;;;;;;5038320;28;20311;-78
2022/03/26 08:37:20;;;;;;;33.47;24.27;;;;;;;;;;5045445;28;20338;-78
2022/03/26 08:39:49;;;;;;;34.63;24.95;;;;;;;;;;5038170;28;20235;-78
2022/03/26 08:42:16;;;;;;;38.05;24.33;;;;;;;;;;5043784;28;20603;-77
2022/03/26 08:44:43;;;;;;;34.47;25.35;;;;;;;;;;5056601;28;20899;-78
2022/03/26 08:47:11;;;;;;;36.75;25.65;;;;;;;;;;5038332;28;20232;-78
2022/03/26 08:49:38;;;;;;;34.15;23.42;;;;;;;;;;5031764;28;20216;-77
2022/03/26 08:52:06;;;;;;;34.05;25.02;;;;;;;;;;5052170;28;20207;-78
2022/03/26 08:54:33;;;;;;;38.17;25.00;;;;;;;;;;5045368;28;20191;-77
2022/03/26 08:57:02;;;;;;;35.00;24.30;;;;;;;;;;5041911;28;20232;-79
2022/03/26 08:59:29;;;;;;;38.28;25.67;;;;;;;;;;5046878;28;20298;-79
2022/03/26 09:01:56;;;;;;;33.75;24.83;;;;;;;;;;5042383;28;20240;-79
2022/03/26 09:04:24;;;;;;;34.75;25.50;;;;;;;;;;5047311;28;20200;-80
2022/03/26 09:06:51;;;;;;;33.10;25.45;;;;;;;;;;5051675;28;20242;-79
2022/03/26 09:09:18;;;;;;;34.05;25.45;;;;;;;;;;5057686;28;20226;-79
2022/03/26 09:11:47;;;;;;;36.33;26.00;;;;;;;;;;5037269;28;20626;-79
2022/03/26 09:14:15;;;;;;;35.10;25.40;;;;;;;;;;5042071;28;20239;-79
2022/03/26 09:16:42;;;;;;;34.30;26.25;;;;;;;;;;5042945;28;20227;-79
2022/03/26 09:19:10;;;;;;;34.65;25.48;;;;;;;;;;5034568;28;20235;-79
2022/03/26 09:21:37;;;;;;;36.28;25.73;;;;;;;;;;5081636;28;20231;-78
2022/03/26 09:24:04;;;;;;;34.83;26.42;;;;;;;;;;5041125;28;20779;-79
2022/03/26 09:26:31;;;;;;;34.38;26.42;;;;;;;;;;5045010;28;20231;-79
2022/03/26 09:28:59;;;;;;;38.50;27.17;;;;;;;;;;5039727;28;20251;-78
2022/03/26 09:31:27;;;;;;;35.33;27.20;;;;;;;;;;5050985;28;20278;-79
2022/03/26 09:33:55;;;;;;;36.78;26.73;;;;;;;;;;5047717;28;20197;-79
2022/03/26 09:36:22;;;;;;;40.13;27.30;;;;;;;;;;5046769;28;20200;-79
2022/03/26 09:38:49;;;;;;;37.63;26.38;;;;;;;;;;5044394;28;20288;-78
2022/03/26 09:41:17;;;;;;;39.63;28.58;;;;;;;;;;5041450;28;20224;-82
2022/03/26 09:43:44;;;;;;;37.50;28.58;;;;;;;;;;5041713;28;20206;-79
2022/03/26 09:46:12;;;;;;;36.60;27.02;;;;;;;;;;5065806;28;20260;-79
2022/03/26 09:48:42;;;;;;;39.58;27.90;;;;;;;;;;5057004;28;20223;-79
2022/03/26 09:51:10;;;;;;;37.25;27.30;;;;;;;;;;5040209;28;20211;-79
2022/03/26 09:53:37;;;;;;;39.08;27.65;;;;;;;;;;5056375;28;20618;-79
2022/03/26 09:56:04;;;;;;;36.55;27.95;;;;;;;;;;5053432;28;20228;-84
2022/03/26 09:58:32;;;;;;;37.40;27.88;;;;;;;;;;5038843;28;20274;-84
2022/03/26 10:00:59;;;;;;;41.13;29.65;;;;;;;;;;5047633;28;20698;-82
2022/03/26 10:03:26;;;;;;;40.95;29.55;;;;;;;;;;5038294;28;20607;-82
2022/03/26 10:06:04;;;;;;;38.10;28.70;;;;;;;;;;5047317;28;20205;-81
2022/03/26 10:08:31;;;;;;;38.83;29.27;;;;;;;;;;5043849;28;20648;-81
2022/03/26 10:10:59;;;;;;;39.47;29.20;;;;;;;;;;5055360;28;20207;-81
2022/03/26 10:13:39;;;;;;;40.13;29.10;;;;;;;;;;5045524;28;20565;-82
2022/03/26 10:16:08;;;;;;;42.55;30.33;;;;;;;;;;5053668;28;20204;-82
2022/03/26 10:18:36;;;;;;;43.17;30.75;;;;;;;;;;5054894;28;20222;-81
2022/03/26 10:21:07;;;;;;;41.33;30.00;;;;;;;;;;5034607;28;20201;-79
2022/03/26 10:23:34;;;;;;;42.45;30.73;;;;;;;;;;5039920;28;20341;-80
2022/03/26 10:26:05;;;;;;;39.45;30.15;;;;;;;;;;5034749;28;20288;-80
2022/03/26 10:28:33;;;;;;;46.67;31.45;;;;;;;;;;5052900;28;20203;-79
2022/03/26 10:34:02;;;;;;;41.35;30.13;;;;;;;;;;5054334;28;20296;-80
2022/03/26 10:36:30;;;;;;;40.42;28.70;;;;;;;;;;5073422;28;20697;-79
2022/03/26 10:38:58;;;;;;;41.28;29.35;;;;;;;;;;5051146;28;20663;-79
2022/03/26 10:41:25;;;;;;;39.40;30.02;;;;;;;;;;5033789;28;20239;-80
2022/03/26 10:44:06;;;;;;;41.55;30.52;;;;;;;;;;5035638;28;20628;-79
2022/03/26 10:46:41;;;;;;;44.65;31.15;;;;;;;;;;5044802;28;20223;-79
2022/03/26 10:49:08;;;;;;;43.67;30.95;;;;;;;;;;5039075;28;20259;-79
2022/03/26 10:51:38;;;;;;;45.83;31.00;;;;;;;;;;5044444;28;20246;-79
2022/03/26 10:54:09;;;;;;;45.13;32.58;;;;;;;;;;5044283;28;20746;-80
2022/03/26 10:56:37;;;;;;;43.78;31.90;;;;;;;;;;5041387;28;20278;-79
2022/03/26 10:59:04;;;;;;;44.25;31.15;;;;;;;;;;5045921;28;20235;-79
2022/03/26 11:01:31;;;;;;;46.15;31.15;;;;;;;;;;5041606;28;20673;-80
2022/03/26 11:03:58;;;;;;;41.30;30.23;;;;;;;;;;5043931;28;20232;-79
2022/03/26 11:06:38;;;;;;;43.40;31.25;;;;;;;;;;5048856;28;20290;-80
2022/03/26 11:09:17;;;;;;;42.65;30.75;;;;;;;;;;5046490;28;20216;-80
2022/03/26 11:11:45;;;;;;;43.92;31.50;;;;;;;;;;5049815;28;20234;-80
2022/03/26 11:14:13;;;;;;;45.05;30.90;;;;;;;;;;5044215;28;20232;-80
2022/03/26 11:16:57;;;;;;;46.75;30.92;;;;;;;;;;5053237;28;20227;-79
2022/03/26 11:19:30;;;;;;;42.70;30.63;;;;;;;;;;5052459;28;20322;-79
2022/03/26 11:22:08;;;;;;;42.05;30.05;;;;;;;;;;5041034;28;20548;-79
2022/03/26 11:24:47;;;;;;;41.00;30.42;;;;;;;;;;5047881;28;20730;-79
2022/03/26 11:27:23;;;;;;;41.83;30.67;;;;;;;;;;5052094;28;20289;-79
2022/03/26 11:29:58;;;;;;;43.58;31.02;;;;;;;;;;5043619;28;20337;-81
2022/03/26 11:32:28;;;;;;;43.50;30.60;;;;;;;;;;5053968;28;20204;-82
2022/03/26 11:35:02;;;;;;;41.13;29.38;;;;;;;;;;5065110;28;20199;-82
2022/03/26 11:37:29;;;;;;;44.45;32.08;;;;;;;;;;5060208;28;20258;-81
2022/03/26 11:39:58;;;;;;;43.67;30.58;;;;;;;;;;5039732;28;20647;-83
2022/03/26 11:42:26;;;;;;;42.05;30.23;;;;;;;;;;5047986;28;20797;-81
2022/03/26 11:50:46;;;;;;;43.55;30.05;;;;;;;;;;5036775;28;20351;-79
2022/03/26 11:53:15;;;;;;;44.28;30.23;;;;;;;;;;5044445;28;20206;-79
2022/03/26 11:55:44;;;;;;;45.10;32.10;;;;;;;;;;5043153;28;20211;-79
2022/03/26 11:58:16;;;;;;;42.88;30.35;;;;;;;;;;5052055;28;20576;-80
2022/03/26 12:00:53;;;;;;;43.90;29.90;;;;;;;;;;5040888;28;20228;-81
2022/03/26 12:03:23;;;;;;;42.70;30.48;;;;;;;;;;5043745;28;20200;-82
2022/03/26 12:08:42;;;;;;;41.20;28.63;;;;;;;;;;5043823;28;20199;-81
2022/03/26 12:11:14;;;;;;;42.92;30.15;;;;;;;;;;5038805;28;20263;-80
2022/03/26 12:13:41;;;;;;;36.42;25.27;;;;;;;;;;5031707;28;20232;-79
2022/03/26 12:16:09;;;;;;;34.67;25.35;;;;;;;;;;5043051;28;20228;-79
2022/03/26 12:18:37;;;;;;;35.33;26.33;;;;;;;;;;5047998;28;20192;-79
2022/03/26 12:21:07;;;;;;;38.78;27.42;;;;;;;;;;5041190;28;20224;-79
2022/03/26 12:23:35;;;;;;;34.03;25.85;;;;;;;;;;5046196;28;20341;-80
2022/03/26 12:26:05;;;;;;;35.05;25.27;;;;;;;;;;5048879;28;20199;-79
2022/03/26 12:28:34;;;;;;;34.67;25.23;;;;;;;;;;5033812;28;20227;-80
2022/03/26 12:31:04;;;;;;;33.95;24.30;;;;;;;;;;5040623;28;20243;-80
2022/03/26 12:33:39;;;;;;;34.10;24.50;;;;;;;;;;5038440;28;20279;-79
2022/03/26 12:36:06;;;;;;;31.63;23.45;;;;;;;;;;5042253;28;20675;-79
2022/03/26 12:38:34;;;;;;;34.90;26.15;;;;;;;;;;5045476;28;20280;-80
2022/03/26 12:41:02;;;;;;;36.85;26.55;;;;;;;;;;5043319;28;20306;-79
2022/03/26 12:43:29;;;;;;;37.63;25.77;;;;;;;;;;5042455;28;20238;-80
2022/03/26 12:45:58;;;;;;;31.27;24.50;;;;;;;;;;5038128;28;20283;-80
2022/03/26 12:48:28;;;;;;;31.83;24.70;;;;;;;;;;5046306;28;20892;-80
2022/03/26 12:50:56;;;;;;;36.20;26.25;;;;;;;;;;5056997;28;20703;-80
2022/03/26 12:53:23;;;;;;;38.03;25.08;;;;;;;;;;5034437;28;20224;-80
2022/03/26 12:55:56;;;;;;;37.72;26.60;;;;;;;;;;5035103;28;20288;-79
2022/03/26 13:01:11;;;;;;;33.85;24.95;;;;;;;;;;5043712;28;20222;-79
2022/03/26 13:03:39;;;;;;;35.00;25.05;;;;;;;;;;5039665;28;20231;-79
2022/03/26 13:06:07;;;;;;;38.65;25.70;;;;;;;;;;5048592;28;20195;-80
2022/03/26 13:08:34;;;;;;;36.03;25.70;;;;;;;;;;5036395;28;20232;-79
2022/03/26 13:11:08;;;;;;;32.88;24.40;;;;;;;;;;5043467;28;20212;-78
2022/03/26 13:13:42;;;;;;;34.13;23.90;;;;;;;;;;5045706;28;20259;-79
2022/03/26 13:16:14;;;;;;;32.45;24.05;;;;;;;;;;5044267;28;20632;-77
2022/03/26 13:18:42;;;;;;;36.45;25.35;;;;;;;;;;5044132;28;20369;-78
2022/03/26 13:21:09;;;;;;;34.80;25.65;;;;;;;;;;5041910;28;20203;-78
2022/03/26 13:23:37;;;;;;;36.22;26.55;;;;;;;;;;5038394;28;20325;-78
2022/03/26 13:26:05;;;;;;;36.15;26.48;;;;;;;;;;5051484;28;20505;-78
2022/03/26 13:28:34;;;;;;;66.05;40.85;;;;;;;;;;5052651;28;20216;-79
2022/03/26 13:31:01;;;;;;;77.00;55.17;;;;;;;;;;5054559;28;20255;-77
2022/03/26 13:33:29;;;;;;;34.40;26.93;;;;;;;;;;5054912;28;20482;-78
2022/03/26 13:35:57;;;;;;;33.92;25.80;;;;;;;;;;5051323;28;20873;-78
2022/03/26 13:38:27;;;;;;;42.00;26.08;;;;;;;;;;5043007;28;20201;-77
2022/03/26 13:40:55;;;;;;;61.92;34.00;;;;;;;;;;5050693;28;20694;-79
2022/03/26 13:43:22;;;;;;;35.22;24.90;;;;;;;;;;5041118;28;20234;-78
2022/03/26 13:45:49;;;;;;;38.33;26.00;;;;;;;;;;5054871;28;20254;-78
2022/03/26 13:48:16;;;;;;;37.33;25.23;;;;;;;;;;5054931;28;20238;-78
2022/03/26 13:50:45;;;;;;;33.45;25.05;;;;;;;;;;5036965;28;20303;-78
2022/03/26 13:53:19;;;;;;;35.70;25.63;;;;;;;;;;5047264;28;20354;-78
2022/03/26 13:55:50;;;;;;;45.65;29.00;;;;;;;;;;5042618;28;20686;-78
2022/03/26 13:58:22;;;;;;;35.70;25.70;;;;;;;;;;5050513;28;20227;-79
2022/03/26 14:00:49;;;;;;;35.47;25.75;;;;;;;;;;5042803;28;20210;-78
2022/03/26 14:03:17;;;;;;;34.00;24.58;;;;;;;;;;5044059;28;20210;-79
2022/03/26 14:05:45;;;;;;;32.28;22.60;;;;;;;;;;5045372;28;20295;-78
2022/03/26 14:08:13;;;;;;;31.92;22.95;;;;;;;;;;5039012;28;20747;-78